sensor_id;sensor_type;location;lat;lon;timestamp;pressure;altitude;pressure_sealevel;temperature;humidity
65754;BME280;69207;47.502;18.940;2023-05-13T00:00:36;98430.41;;;9.92;100.00
65754;BME280;69207;47.502;18.940;2023-05-13T00:01:39;98435.91;;;9.92;100.00
65754;BME280;69207;47.502;18.940;2023-05-13T00:02:43;98432.81;;;10.05;100.00
65754;BME280;69207;47.502;18.940;2023-05-13T00:03:46;98437.09;;;9.99;100.00
65754;BME280;69207;47.502;18.940;2023-05-13T00:04:49;98440.34;;;9.88;100.00
65754;BME280;69207;47.502;18.940;2023-05-13T00:05:51;98432.38;;;9.82;100.00
65754;BME280;69207;47.502;18.940;2023-05-13T00:06:54;98433.59;;;9.89;100.00
65754;BME280;69207;47.502;18.940;2023-05-13T00:07:57;98429.44;;;9.97;100.00
65754;BME280;69207;47.502;18.940;2023-05-13T00:09:03;98435.34;;;9.94;100.00
65754;BME280;69207;47.502;18.940;2023-05-13T00:10:06;98430.41;;;9.92;100.00
65754;BME280;69207;47.502;18.940;2023-05-13T00:11:09;98438.09;;;9.94;100.00
65754;BME280;69207;47.502;18.940;2023-05-13T00:12:12;98430.09;;;9.88;100.00
65754;BME280;69207;47.502;18.940;2023-05-13T00:13:15;98429.47;;;9.80;100.00
65754;BME280;69207;47.502;18.940;2023-05-13T00:14:17;98429.47;;;9.80;100.00
65754;BME280;69207;47.502;18.940;2023-05-13T00:15:20;98434.66;;;9.76;100.00
65754;BME280;69207;47.502;18.940;2023-05-13T00:16:23;98433.78;;;9.73;100.00
65754;BME280;69207;47.502;18.940;2023-05-13T00:17:29;98437.09;;;9.72;100.00
65754;BME280;69207;47.502;18.940;2023-05-13T00:18:31;98435.28;;;9.84;100.00
65754;BME280;69207;47.502;18.940;2023-05-13T00:19:34;98437.31;;;9.84;100.00
65754;BME280;69207;47.502;18.940;2023-05-13T00:20:37;98437.00;;;9.79;100.00
65754;BME280;69207;47.502;18.940;2023-05-13T00:21:40;98436.72;;;9.85;100.00
65754;BME280;69207;47.502;18.940;2023-05-13T00:22:43;98434.97;;;10.07;100.00
65754;BME280;69207;47.502;18.940;2023-05-13T00:23:46;98430.72;;;9.96;100.00
65754;BME280;69207;47.502;18.940;2023-05-13T00:24:49;98440.06;;;9.84;100.00
65754;BME280;69207;47.502;18.940;2023-05-13T00:25:51;98431.25;;;9.85;100.00
65754;BME280;69207;47.502;18.940;2023-05-13T00:26:54;98438.09;;;9.94;100.00
65754;BME280;69207;47.502;18.940;2023-05-13T00:27:57;98433.59;;;9.89;100.00
65754;BME280;69207;47.502;18.940;2023-05-13T00:29:00;98439.78;;;9.89;100.00
65754;BME280;69207;47.502;18.940;2023-05-13T00:30:03;98431.97;;;9.86;100.00
65754;BME280;69207;47.502;18.940;2023-05-13T00:31:07;98435.69;;;9.81;100.00
65754;BME280;69207;47.502;18.940;2023-05-13T00:32:11;98433.22;;;9.75;100.00
65754;BME280;69207;47.502;18.940;2023-05-13T00:33:14;98437.25;;;9.74;100.00
65754;BME280;69207;47.502;18.940;2023-05-13T00:34:17;98437.09;;;9.72;100.00
65754;BME280;69207;47.502;18.940;2023-05-13T00:35:20;98444.06;;;9.83;100.00
65754;BME280;69207;47.502;18.940;2023-05-13T00:36:24;98444.75;;;9.73;100.00
65754;BME280;69207;47.502;18.940;2023-05-13T00:37:29;98439.09;;;9.71;100.00
65754;BME280;69207;47.502;18.940;2023-05-13T00:38:32;98442.62;;;9.82;100.00
65754;BME280;69207;47.502;18.940;2023-05-13T00:39:35;98443.41;;;9.92;100.00
65754;BME280;69207;47.502;18.940;2023-05-13T00:40:38;98443.09;;;9.88;100.00
65754;BME280;69207;47.502;18.940;2023-05-13T00:41:40;98447.38;;;9.81;100.00
65754;BME280;69207;47.502;18.940;2023-05-13T00:42:43;98442.16;;;9.75;100.00
65754;BME280;69207;47.502;18.940;2023-05-13T00:43:46;98443.31;;;9.72;100.00
65754;BME280;69207;47.502;18.940;2023-05-13T00:44:50;98443.91;;;9.81;100.00
65754;BME280;69207;47.502;18.940;2023-05-13T00:45:54;98444.72;;;9.91;100.00
65754;BME280;69207;47.502;18.940;2023-05-13T00:46:57;98438.19;;;9.86;100.00
65754;BME280;69207;47.502;18.940;2023-05-13T00:48:00;98444.75;;;9.73;100.00
65754;BME280;69207;47.502;18.940;2023-05-13T00:49:03;98446.34;;;9.76;100.00
65754;BME280;69207;47.502;18.940;2023-05-13T00:50:08;98437.84;;;9.82;100.00
65754;BME280;69207;47.502;18.940;2023-05-13T00:51:11;98438.56;;;9.73;100.00
65754;BME280;69207;47.502;18.940;2023-05-13T00:52:14;98441.38;;;9.65;100.00
65754;BME280;69207;47.502;18.940;2023-05-13T00:53:17;98453.31;;;9.77;100.00
65754;BME280;69207;47.502;18.940;2023-05-13T00:54:20;98449.34;;;9.71;100.00
65754;BME280;69207;47.502;18.940;2023-05-13T00:55:23;98449.91;;;9.69;100.00
65754;BME280;69207;47.502;18.940;2023-05-13T00:56:25;98447.56;;;9.66;100.00
65754;BME280;69207;47.502;18.940;2023-05-13T00:57:29;98449.13;;;9.59;100.00
65754;BME280;69207;47.502;18.940;2023-05-13T00:58:32;98448.47;;;9.68;100.00
65754;BME280;69207;47.502;18.940;2023-05-13T00:59:34;98450.03;;;9.62;100.00
65754;BME280;69207;47.502;18.940;2023-05-13T01:00:56;98452.91;;;9.64;100.00
65754;BME280;69207;47.502;18.940;2023-05-13T01:02:04;98448.72;;;9.63;100.00
65754;BME280;69207;47.502;18.940;2023-05-13T01:03:12;98449.31;;;9.61;100.00
65754;BME280;69207;47.502;18.940;2023-05-13T01:04:31;98442.09;;;9.66;100.00
65754;BME280;69207;47.502;18.940;2023-05-13T01:05:57;98445.87;;;9.70;100.00
65754;BME280;69207;47.502;18.940;2023-05-13T01:10:08;98447.56;;;9.66;100.00
65754;BME280;69207;47.502;18.940;2023-05-13T01:11:26;98445.09;;;9.60;100.00
65754;BME280;69207;47.502;18.940;2023-05-13T01:12:32;98451.06;;;9.66;100.00
65754;BME280;69207;47.502;18.940;2023-05-13T01:13:37;98452.53;;;9.67;100.00
65754;BME280;69207;47.502;18.940;2023-05-13T01:14:53;98451.88;;;9.59;100.00
65754;BME280;69207;47.502;18.940;2023-05-13T01:16:06;98445.41;;;9.64;100.00
65754;BME280;69207;47.502;18.940;2023-05-13T01:17:23;98451.16;;;9.59;100.00
65754;BME280;69207;47.502;18.940;2023-05-13T01:18:32;98449.69;;;9.58;100.00
65754;BME280;69207;47.502;18.940;2023-05-13T01:20:43;98448.16;;;9.64;100.00
65754;BME280;69207;47.502;18.940;2023-05-13T01:21:53;98450.44;;;9.58;100.00
65754;BME280;69207;47.502;18.940;2023-05-13T01:22:56;98443.81;;;9.61;100.00
65754;BME280;69207;47.502;18.940;2023-05-13T01:23:59;98446.56;;;9.61;100.00
65754;BME280;69207;47.502;18.940;2023-05-13T01:25:02;98451.84;;;9.76;100.00
65754;BME280;69207;47.502;18.940;2023-05-13T01:26:06;98449.19;;;9.69;100.00
65754;BME280;69207;47.502;18.940;2023-05-13T01:27:08;98454.78;;;9.61;100.00
65754;BME280;69207;47.502;18.940;2023-05-13T01:28:11;98450.09;;;9.54;100.00
65754;BME280;69207;47.502;18.940;2023-05-13T01:29:15;98452.84;;;9.54;100.00
65754;BME280;69207;47.502;18.940;2023-05-13T01:30:18;98449.94;;;9.52;100.00
65754;BME280;69207;47.502;18.940;2023-05-13T01:31:22;98453.81;;;9.49;100.00
65754;BME280;69207;47.502;18.940;2023-05-13T01:32:25;98449.62;;;9.48;100.00
65754;BME280;69207;47.502;18.940;2023-05-13T01:33:28;98454.72;;;9.51;100.00
65754;BME280;69207;47.502;18.940;2023-05-13T01:34:33;98458.56;;;9.66;100.00
65754;BME280;69207;47.502;18.940;2023-05-13T01:35:36;98457.53;;;9.61;100.00
65754;BME280;69207;47.502;18.940;2023-05-13T01:36:39;98455.97;;;9.68;100.00
65754;BME280;69207;47.502;18.940;2023-05-13T01:37:42;98458.09;;;9.60;100.00
65754;BME280;69207;47.502;18.940;2023-05-13T01:38:46;98460.19;;;9.51;100.00
65754;BME280;69207;47.502;18.940;2023-05-13T01:39:49;98455.34;;;9.60;100.00
65754;BME280;69207;47.502;18.940;2023-05-13T01:40:53;98461.63;;;9.70;100.00
65754;BME280;69207;47.502;18.940;2023-05-13T01:41:57;98454.78;;;9.61;100.00
65754;BME280;69207;47.502;18.940;2023-05-13T01:43:00;98454.63;;;9.59;100.00
65754;BME280;69207;47.502;18.940;2023-05-13T01:44:03;98459.63;;;9.53;100.00
65754;BME280;69207;47.502;18.940;2023-05-13T01:45:06;98452.78;;;9.62;100.00
65754;BME280;69207;47.502;18.940;2023-05-13T01:46:12;98454.94;;;9.63;100.00
65754;BME280;69207;47.502;18.940;2023-05-13T01:47:15;98451.31;;;9.61;100.00
65754;BME280;69207;47.502;18.940;2023-05-13T01:48:18;98450.09;;;9.54;100.00
65754;BME280;69207;47.502;18.940;2023-05-13T01:49:21;98456.88;;;9.53;100.00
65754;BME280;69207;47.502;18.940;2023-05-13T01:50:24;98456.56;;;9.49;100.00
65754;BME280;69207;47.502;18.940;2023-05-13T01:51:27;98456.41;;;9.47;100.00
65754;BME280;69207;47.502;18.940;2023-05-13T01:52:30;98452.22;;;9.46;100.00
65754;BME280;69207;47.502;18.940;2023-05-13T01:53:33;98452.34;;;9.65;100.00
65754;BME280;69207;47.502;18.940;2023-05-13T01:54:35;98453.50;;;9.62;100.00
65754;BME280;69207;47.502;18.940;2023-05-13T01:55:38;98459.06;;;9.55;100.00
65754;BME280;69207;47.502;18.940;2023-05-13T01:56:41;98454.56;;;9.49;100.00
65754;BME280;69207;47.502;18.940;2023-05-13T01:57:44;98451.97;;;9.51;100.00
65754;BME280;69207;47.502;18.940;2023-05-13T01:58:46;98453.28;;;9.50;100.00
65754;BME280;69207;47.502;18.940;2023-05-13T01:59:49;98460.19;;;9.51;100.00
65754;BME280;69207;47.502;18.940;2023-05-13T02:00:52;98452.56;;;9.50;100.00
65754;BME280;69207;47.502;18.940;2023-05-13T02:01:55;98464.06;;;9.48;100.00
65754;BME280;69207;47.502;18.940;2023-05-13T02:02:58;98459.00;;;9.45;100.00
65754;BME280;69207;47.502;18.940;2023-05-13T02:04:01;98453.53;;;9.45;100.00
65754;BME280;69207;47.502;18.940;2023-05-13T02:05:04;98461.03;;;9.44;100.00
65754;BME280;69207;47.502;18.940;2023-05-13T02:06:07;98453.56;;;9.55;100.00
65754;BME280;69207;47.502;18.940;2023-05-13T02:07:09;98459.06;;;9.55;100.00
65754;BME280;69207;47.502;18.940;2023-05-13T02:08:12;98464.72;;;9.57;100.00
65754;BME280;69207;47.502;18.940;2023-05-13T02:09:15;98452.84;;;9.54;100.00
65754;BME280;69207;47.502;18.940;2023-05-13T02:10:18;98453.56;;;9.55;100.00
65754;BME280;69207;47.502;18.940;2023-05-13T02:11:21;98466.16;;;9.58;100.00
65754;BME280;69207;47.502;18.940;2023-05-13T02:12:27;98460.94;;;9.52;100.00
65754;BME280;69207;47.502;18.940;2023-05-13T02:13:30;98456.88;;;9.53;100.00
65754;BME280;69207;47.502;18.940;2023-05-13T02:14:33;98456.88;;;9.53;100.00
65754;BME280;69207;47.502;18.940;2023-05-13T02:15:35;98446.34;;;9.49;100.00
65754;BME280;69207;47.502;18.940;2023-05-13T02:16:38;98460.06;;;9.49;100.00
65754;BME280;69207;47.502;18.940;2023-05-13T02:17:41;98444.16;;;9.48;100.00
65754;BME280;69207;47.502;18.940;2023-05-13T02:18:45;98462.78;;;9.49;100.00
65754;BME280;69207;47.502;18.940;2023-05-13T02:19:47;98461.97;;;9.57;100.00
65754;BME280;69207;47.502;18.940;2023-05-13T02:20:50;98458.03;;;9.50;100.00
65754;BME280;69207;47.502;18.940;2023-05-13T02:21:53;98459.69;;;9.63;100.00
65754;BME280;69207;47.502;18.940;2023-05-13T02:22:56;98463.03;;;9.61;100.00
65754;BME280;69207;47.502;18.940;2023-05-13T02:23:59;98460.94;;;9.52;100.00
65754;BME280;69207;47.502;18.940;2023-05-13T02:25:03;98457.72;;;9.46;100.00
65754;BME280;69207;47.502;18.940;2023-05-13T02:26:06;98459.88;;;9.47;100.00
65754;BME280;69207;47.502;18.940;2023-05-13T02:27:08;98466.09;;;9.48;100.00
65754;BME280;69207;47.502;18.940;2023-05-13T02:28:14;98466.09;;;9.48;100.00
65754;BME280;69207;47.502;18.940;2023-05-13T02:29:17;98459.88;;;9.47;100.00
65754;BME280;69207;47.502;18.940;2023-05-13T02:30:19;98466.09;;;9.48;100.00
65754;BME280;69207;47.502;18.940;2023-05-13T02:31:23;98462.03;;;9.49;100.00
65754;BME280;69207;47.502;18.940;2023-05-13T02:32:26;98461.31;;;9.48;100.00
65754;BME280;69207;47.502;18.940;2023-05-13T02:33:29;98452.56;;;9.50;100.00
65754;BME280;69207;47.502;18.940;2023-05-13T02:34:32;98462.37;;;9.53;100.00
65754;BME280;69207;47.502;18.940;2023-05-13T02:35:35;98450.28;;;9.56;100.00
65754;BME280;69207;47.502;18.940;2023-05-13T02:36:38;98461.66;;;9.52;100.00
65754;BME280;69207;47.502;18.940;2023-05-13T02:37:40;98458.19;;;9.52;100.00
65754;BME280;69207;47.502;18.940;2023-05-13T02:38:43;98460.53;;;9.56;100.00
65754;BME280;69207;47.502;18.940;2023-05-13T02:39:46;98465.19;;;9.63;100.00
65754;BME280;69207;47.502;18.940;2023-05-13T02:40:48;98455.97;;;9.68;100.00
65754;BME280;69207;47.502;18.940;2023-05-13T02:41:51;98462.31;;;9.61;100.00
65754;BME280;69207;47.502;18.940;2023-05-13T02:42:54;98462.69;;;9.57;100.00
65754;BME280;69207;47.502;18.940;2023-05-13T02:43:57;98462.69;;;9.57;100.00
65754;BME280;69207;47.502;18.940;2023-05-13T02:44:59;98461.87;;;9.64;100.00
65754;BME280;69207;47.502;18.940;2023-05-13T02:46:02;98464.00;;;9.56;100.00
65754;BME280;69207;47.502;18.940;2023-05-13T02:47:05;98466.25;;;9.50;100.00
65754;BME280;69207;47.502;18.940;2023-05-13T02:48:08;98470.44;;;9.51;100.00
65754;BME280;69207;47.502;18.940;2023-05-13T02:49:12;98462.78;;;9.49;100.00
65754;BME280;69207;47.502;18.940;2023-05-13T02:50:15;98463.88;;;9.64;100.00
65754;BME280;69207;47.502;18.940;2023-05-13T02:51:18;98468.87;;;9.75;100.00
65754;BME280;69207;47.502;18.940;2023-05-13T02:52:21;98471.41;;;9.63;100.00
65754;BME280;69207;47.502;18.940;2023-05-13T02:53:23;98475.13;;;9.58;100.00
65754;BME280;69207;47.502;18.940;2023-05-13T02:54:27;98469.47;;;9.56;100.00
65754;BME280;69207;47.502;18.940;2023-05-13T02:55:29;98474.00;;;9.61;100.00
65754;BME280;69207;47.502;18.940;2023-05-13T02:56:32;98470.41;;;9.68;100.00
65754;BME280;69207;47.502;18.940;2023-05-13T02:57:35;98473.56;;;9.65;100.00
65754;BME280;69207;47.502;18.940;2023-05-13T02:58:39;98474.00;;;9.61;100.00
65754;BME280;69207;47.502;18.940;2023-05-13T02:59:41;98467.03;;;9.60;100.00
65754;BME280;69207;47.502;18.940;2023-05-13T03:00:44;98471.78;;;9.60;100.00
65754;BME280;69207;47.502;18.940;2023-05-13T03:01:47;98458.09;;;9.60;100.00
65754;BME280;69207;47.502;18.940;2023-05-13T03:02:50;98464.38;;;9.70;100.00
65754;BME280;69207;47.502;18.940;2023-05-13T03:03:53;98463.31;;;9.65;100.00
65754;BME280;69207;47.502;18.940;2023-05-13T03:04:56;98474.25;;;9.56;100.00
65754;BME280;69207;47.502;18.940;2023-05-13T03:05:59;98461.25;;;9.56;100.00
65754;BME280;69207;47.502;18.940;2023-05-13T03:07:02;98468.50;;;9.61;100.00
65754;BME280;69207;47.502;18.940;2023-05-13T03:08:04;98462.44;;;9.63;100.00
65754;BME280;69207;47.502;18.940;2023-05-13T03:09:07;98470.78;;;9.55;100.00
65754;BME280;69207;47.502;18.940;2023-05-13T03:10:10;98465.12;;;9.53;100.00
65754;BME280;69207;47.502;18.940;2023-05-13T03:11:13;98464.06;;;9.48;100.00
65754;BME280;69207;47.502;18.940;2023-05-13T03:12:16;98465.94;;;9.46;100.00
65754;BME280;69207;47.502;18.940;2023-05-13T03:13:19;98472.16;;;9.46;100.00
65754;BME280;69207;47.502;18.940;2023-05-13T03:14:21;98469.00;;;9.50;100.00
65754;BME280;69207;47.502;18.940;2023-05-13T03:15:24;98471.91;;;9.52;100.00
65754;BME280;69207;47.502;18.940;2023-05-13T03:16:28;98466.75;;;9.56;100.00
65754;BME280;69207;47.502;18.940;2023-05-13T03:17:30;98469.72;;;9.50;100.00
65754;BME280;69207;47.502;18.940;2023-05-13T03:18:34;98474.06;;;9.53;100.00
65754;BME280;69207;47.502;18.940;2023-05-13T03:19:37;98470.44;;;9.51;100.00
65754;BME280;69207;47.502;18.940;2023-05-13T03:20:40;98474.63;;;9.52;100.00
65754;BME280;69207;47.502;18.940;2023-05-13T03:21:43;98473.34;;;9.53;100.00
65754;BME280;69207;47.502;18.940;2023-05-13T03:22:45;98472.00;;;9.44;100.00
65754;BME280;69207;47.502;18.940;2023-05-13T03:23:48;98477.47;;;9.44;100.00
65754;BME280;69207;47.502;18.940;2023-05-13T03:24:51;98477.37;;;9.52;100.00
65754;BME280;69207;47.502;18.940;2023-05-13T03:25:54;98476.25;;;9.55;100.00
65754;BME280;69207;47.502;18.940;2023-05-13T03:26:57;98467.84;;;9.53;100.00
65754;BME280;69207;47.502;18.940;2023-05-13T03:28:02;98474.78;;;9.54;100.00
65754;BME280;69207;47.502;18.940;2023-05-13T03:29:05;98481.66;;;9.45;100.00
65754;BME280;69207;47.502;18.940;2023-05-13T03:30:08;98476.25;;;9.55;100.00
65754;BME280;69207;47.502;18.940;2023-05-13T03:31:11;98479.66;;;9.46;100.00
65754;BME280;69207;47.502;18.940;2023-05-13T03:32:14;98480.12;;;9.52;100.00
65754;BME280;69207;47.502;18.940;2023-05-13T03:33:17;98484.66;;;9.40;100.00
65754;BME280;69207;47.502;18.940;2023-05-13T03:34:20;98476.56;;;9.42;100.00
65754;BME280;69207;47.502;18.940;2023-05-13T03:35:22;98484.31;;;9.36;100.00
65754;BME280;69207;47.502;18.940;2023-05-13T03:36:25;98481.44;;;9.34;100.00
65754;BME280;69207;47.502;18.940;2023-05-13T03:37:28;98486.00;;;9.31;100.00
65754;BME280;69207;47.502;18.940;2023-05-13T03:38:31;98483.50;;;9.25;100.00
65754;BME280;69207;47.502;18.940;2023-05-13T03:39:33;98484.56;;;9.30;100.00
65754;BME280;69207;47.502;18.940;2023-05-13T03:40:36;98486.44;;;9.28;100.00
65754;BME280;69207;47.502;18.940;2023-05-13T03:41:39;98486.00;;;9.31;100.00
65754;BME280;69207;47.502;18.940;2023-05-13T03:42:42;98485.13;;;9.29;100.00
65754;BME280;69207;47.502;18.940;2023-05-13T03:43:45;98486.00;;;9.31;100.00
65754;BME280;69207;47.502;18.940;2023-05-13T03:44:48;98489.47;;;9.32;100.00
65754;BME280;69207;47.502;18.940;2023-05-13T03:45:52;98487.16;;;9.28;100.00
65754;BME280;69207;47.502;18.940;2023-05-13T03:46:54;98493.38;;;9.29;100.00
65754;BME280;69207;47.502;18.940;2023-05-13T03:47:57;98487.47;;;9.32;100.00
65754;BME280;69207;47.502;18.940;2023-05-13T03:49:00;98493.38;;;9.29;100.00
65754;BME280;69207;47.502;18.940;2023-05-13T03:50:03;98491.81;;;9.35;100.00
65754;BME280;69207;47.502;18.940;2023-05-13T03:51:05;98495.94;;;9.44;100.00
65754;BME280;69207;47.502;18.940;2023-05-13T03:52:08;98491.44;;;9.39;100.00
65754;BME280;69207;47.502;18.940;2023-05-13T03:53:11;98494.81;;;9.47;100.00
65754;BME280;69207;47.502;18.940;2023-05-13T03:54:14;98497.22;;;9.43;100.00
65754;BME280;69207;47.502;18.940;2023-05-13T03:55:16;98496.91;;;9.39;100.00
65754;BME280;69207;47.502;18.940;2023-05-13T03:56:19;98506.75;;;9.42;100.00
65754;BME280;69207;47.502;18.940;2023-05-13T03:57:23;98496.91;;;9.39;100.00
65754;BME280;69207;47.502;18.940;2023-05-13T03:58:25;98499.81;;;9.41;100.00
65754;BME280;69207;47.502;18.940;2023-05-13T03:59:28;98502.69;;;9.43;100.00
65754;BME280;69207;47.502;18.940;2023-05-13T04:00:31;98503.91;;;9.32;100.00
65754;BME280;69207;47.502;18.940;2023-05-13T04:01:34;98502.66;;;9.33;100.00
65754;BME280;69207;47.502;18.940;2023-05-13T04:02:37;98503.12;;;9.39;100.00
65754;BME280;69207;47.502;18.940;2023-05-13T04:03:40;98509.34;;;9.40;100.00
65754;BME280;69207;47.502;18.940;2023-05-13T04:04:46;98504.00;;;9.42;100.00
65754;BME280;69207;47.502;18.940;2023-05-13T04:05:50;98494.41;;;9.33;100.00
65754;BME280;69207;47.502;18.940;2023-05-13T04:06:53;98507.37;;;9.33;100.00
65754;BME280;69207;47.502;18.940;2023-05-13T04:07:55;98514.00;;;9.30;100.00
65754;BME280;69207;47.502;18.940;2023-05-13T04:08:58;98505.63;;;9.28;100.00
65754;BME280;69207;47.502;18.940;2023-05-13T04:10:02;98512.94;;;9.25;100.00
65754;BME280;69207;47.502;18.940;2023-05-13T04:11:05;98511.09;;;9.28;100.00
65754;BME280;69207;47.502;18.940;2023-05-13T04:12:08;98512.84;;;9.33;100.00
65754;BME280;69207;47.502;18.940;2023-05-13T04:13:10;98509.56;;;9.34;100.00
65754;BME280;69207;47.502;18.940;2023-05-13T04:14:13;98509.16;;;9.38;100.00
65754;BME280;69207;47.502;18.940;2023-05-13T04:15:16;98513.19;;;9.37;100.00
65754;BME280;69207;47.502;18.940;2023-05-13T04:16:19;98507.87;;;9.39;100.00
65754;BME280;69207;47.502;18.940;2023-05-13T04:17:22;98510.44;;;9.37;100.00
65754;BME280;69207;47.502;18.940;2023-05-13T04:18:25;98511.41;;;9.49;100.00
65754;BME280;69207;47.502;18.940;2023-05-13T04:19:28;98514.66;;;9.55;100.00
65754;BME280;69207;47.502;18.940;2023-05-13T04:20:31;98523.53;;;9.46;100.00
65754;BME280;69207;47.502;18.940;2023-05-13T04:21:33;98518.44;;;9.42;100.00
65754;BME280;69207;47.502;18.940;2023-05-13T04:22:36;98519.56;;;9.39;100.00
65754;BME280;69207;47.502;18.940;2023-05-13T04:23:39;98516.75;;;9.47;100.00
65754;BME280;69207;47.502;18.940;2023-05-13T04:24:41;98510.06;;;9.40;100.00
65754;BME280;69207;47.502;18.940;2023-05-13T04:25:52;98524.72;;;9.35;100.00
65754;BME280;69207;47.502;18.940;2023-05-13T04:26:55;98521.84;;;9.33;100.00
65754;BME280;69207;47.502;18.940;2023-05-13T04:27:57;98517.22;;;9.36;100.00
65754;BME280;69207;47.502;18.940;2023-05-13T04:29:00;98519.56;;;9.39;100.00
65754;BME280;69207;47.502;18.940;2023-05-13T04:30:03;98528.69;;;9.42;100.00
65754;BME280;69207;47.502;18.940;2023-05-13T04:31:06;98520.69;;;9.36;100.00
65754;BME280;69207;47.502;18.940;2023-05-13T04:32:09;98512.31;;;9.34;100.00
65754;BME280;69207;47.502;18.940;2023-05-13T04:33:12;98527.22;;;9.41;100.00
65754;BME280;69207;47.502;18.940;2023-05-13T04:34:15;98522.06;;;9.45;100.00
65754;BME280;69207;47.502;18.940;2023-05-13T04:35:18;98529.41;;;9.42;100.00
65754;BME280;69207;47.502;18.940;2023-05-13T04:36:20;98516.66;;;9.37;100.00
65754;BME280;69207;47.502;18.940;2023-05-13T04:37:23;98523.91;;;9.42;100.00
65754;BME280;69207;47.502;18.940;2023-05-13T04:38:26;98519.81;;;9.51;100.00
65754;BME280;69207;47.502;18.940;2023-05-13T04:39:29;98529.50;;;9.52;100.00
65754;BME280;69207;47.502;18.940;2023-05-13T04:40:32;98524.97;;;9.47;100.00
65754;BME280;69207;47.502;18.940;2023-05-13T04:41:34;98528.69;;;9.42;100.00
65754;BME280;69207;47.502;18.940;2023-05-13T04:42:37;98536.91;;;9.42;100.00
65754;BME280;69207;47.502;18.940;2023-05-13T04:43:40;98530.47;;;9.47;100.00
65754;BME280;69207;47.502;18.940;2023-05-13T04:44:42;98528.84;;;9.61;100.00
65754;BME280;69207;47.502;18.940;2023-05-13T04:45:46;98523.28;;;9.51;100.00
65754;BME280;69207;47.502;18.940;2023-05-13T04:46:51;98528.84;;;9.44;100.00
65754;BME280;69207;47.502;18.940;2023-05-13T04:47:54;98526.84;;;9.44;100.00
65754;BME280;69207;47.502;18.940;2023-05-13T04:49:00;98524.34;;;9.56;100.00
65754;BME280;69207;47.502;18.940;2023-05-13T04:50:03;98537.72;;;9.52;100.00
65754;BME280;69207;47.502;18.940;2023-05-13T04:51:06;98525.31;;;9.51;100.00
65754;BME280;69207;47.502;18.940;2023-05-13T04:52:09;98532.63;;;9.48;100.00
65754;BME280;69207;47.502;18.940;2023-05-13T04:53:14;98529.81;;;9.56;100.00
65754;BME280;69207;47.502;18.940;2023-05-13T04:54:17;98531.13;;;9.55;100.00
65754;BME280;69207;47.502;18.940;2023-05-13T04:55:20;98528.03;;;9.51;100.00
65754;BME280;69207;47.502;18.940;2023-05-13T04:56:23;98528.63;;;9.49;100.00
65754;BME280;69207;47.502;18.940;2023-05-13T04:57:26;98524.88;;;9.55;100.00
65754;BME280;69207;47.502;18.940;2023-05-13T04:58:29;98525.94;;;9.59;100.00
65754;BME280;69207;47.502;18.940;2023-05-13T04:59:32;98534.81;;;9.67;100.00
65754;BME280;69207;47.502;18.940;2023-05-13T05:00:35;98536.25;;;9.68;100.00
65754;BME280;69207;47.502;18.940;2023-05-13T05:01:38;98528.84;;;9.61;100.00
65754;BME280;69207;47.502;18.940;2023-05-13T05:02:41;98535.31;;;9.56;100.00
65754;BME280;69207;47.502;18.940;2023-05-13T05:03:43;98534.72;;;9.58;100.00
65754;BME280;69207;47.502;18.940;2023-05-13T05:04:46;98532.72;;;9.58;100.00
65754;BME280;69207;47.502;18.940;2023-05-13T05:05:50;98540.38;;;9.60;100.00
65754;BME280;69207;47.502;18.940;2023-05-13T05:06:53;98540.06;;;9.56;100.00
65754;BME280;69207;47.502;18.940;2023-05-13T05:07:56;98538.69;;;9.64;100.00
65754;BME280;69207;47.502;18.940;2023-05-13T05:08:59;98538.84;;;9.66;100.00
65754;BME280;69207;47.502;18.940;2023-05-13T05:10:02;98544.75;;;9.63;100.00
65754;BME280;69207;47.502;18.940;2023-05-13T05:11:04;98540.69;;;9.64;100.00
65754;BME280;69207;47.502;18.940;2023-05-13T05:12:07;98541.50;;;9.74;100.00
65754;BME280;69207;47.502;18.940;2023-05-13T05:13:10;98544.34;;;9.66;100.00
65754;BME280;69207;47.502;18.940;2023-05-13T05:14:13;98545.31;;;9.61;100.00
65754;BME280;69207;47.502;18.940;2023-05-13T05:15:15;98541.34;;;9.72;100.00
65754;BME280;69207;47.502;18.940;2023-05-13T05:16:18;98545.63;;;9.65;100.00
65754;BME280;69207;47.502;18.940;2023-05-13T05:17:21;98547.81;;;9.67;100.00
65754;BME280;69207;47.502;18.940;2023-05-13T05:18:24;98543.44;;;9.64;100.00
65754;BME280;69207;47.502;18.940;2023-05-13T05:19:27;98553.69;;;9.63;100.00
65754;BME280;69207;47.502;18.940;2023-05-13T05:20:29;98552.97;;;9.63;100.00
65754;BME280;69207;47.502;18.940;2023-05-13T05:21:32;98549.41;;;9.70;100.00
65754;BME280;69207;47.502;18.940;2023-05-13T05:22:36;98547.81;;;9.67;100.00
65754;BME280;69207;47.502;18.940;2023-05-13T05:23:39;98560.94;;;9.68;100.00
65754;BME280;69207;47.502;18.940;2023-05-13T05:24:42;98554.50;;;9.73;100.00
65754;BME280;69207;47.502;18.940;2023-05-13T05:25:45;98559.25;;;9.73;100.00
65754;BME280;69207;47.502;18.940;2023-05-13T05:26:50;98551.19;;;9.75;100.00
65754;BME280;69207;47.502;18.940;2023-05-13T05:27:53;98552.00;;;9.68;100.00
65754;BME280;69207;47.502;18.940;2023-05-13T05:28:56;98559.31;;;9.83;100.00
65754;BME280;69207;47.502;18.940;2023-05-13T05:29:59;98551.91;;;9.75;100.00
65754;BME280;69207;47.502;18.940;2023-05-13T05:31:01;98544.25;;;9.74;100.00
65754;BME280;69207;47.502;18.940;2023-05-13T05:32:05;98552.09;;;9.77;100.00
65754;BME280;69207;47.502;18.940;2023-05-13T05:33:08;98558.03;;;9.84;100.00
65754;BME280;69207;47.502;18.940;2023-05-13T05:34:10;98552.09;;;9.77;100.00
65754;BME280;69207;47.502;18.940;2023-05-13T05:35:13;98550.38;;;9.82;100.00
65754;BME280;69207;47.502;18.940;2023-05-13T05:36:19;98555.94;;;9.74;100.00